createdAt,value
2018-06-11T00:00:04.764Z,19.00
2018-06-11T00:01:04.994Z,19.00
2018-06-11T00:02:05.078Z,19.00
2018-06-11T00:03:05.049Z,19.00
2018-06-11T00:04:05.718Z,19.00
2018-06-11T00:05:05.627Z,19.00
2018-06-11T00:06:05.165Z,18.90
2018-06-11T00:07:05.213Z,18.90
2018-06-11T00:08:05.279Z,18.90
2018-06-11T00:09:05.110Z,18.90
2018-06-11T00:10:04.804Z,18.90
2018-06-11T00:11:04.881Z,18.90
2018-06-11T00:12:05.569Z,18.90
2018-06-11T00:13:05.343Z,18.90
2018-06-11T00:14:05.395Z,18.90
2018-06-11T00:15:05.540Z,18.90
2018-06-11T00:16:05.485Z,18.90
2018-06-11T00:17:05.377Z,18.90
2018-06-11T00:18:05.553Z,18.90
2018-06-11T00:19:05.278Z,18.80
2018-06-11T00:20:05.162Z,18.90
2018-06-11T00:21:04.799Z,18.80
2018-06-11T00:22:05.497Z,18.80
2018-06-11T00:23:05.207Z,18.80
2018-06-11T00:24:05.363Z,18.80
2018-06-11T00:25:05.448Z,18.80
2018-06-11T00:26:05.235Z,18.70
2018-06-11T00:27:05.324Z,18.70
2018-06-11T00:28:05.497Z,18.70
2018-06-11T00:29:04.790Z,18.70
2018-06-11T00:30:04.846Z,18.70
2018-06-11T00:31:06.310Z,18.70
2018-06-11T00:32:05.550Z,18.70
2018-06-11T00:33:05.590Z,18.70
2018-06-11T00:34:05.060Z,18.70
2018-06-11T00:35:04.724Z,18.60
2018-06-11T00:36:04.865Z,18.60
2018-06-11T00:37:05.577Z,18.60
2018-06-11T00:38:04.768Z,18.60
2018-06-11T00:39:05.668Z,18.60
2018-06-11T00:40:05.115Z,18.60
2018-06-11T00:41:05.110Z,18.60
2018-06-11T00:42:04.966Z,18.50
2018-06-11T00:43:05.092Z,18.50
2018-06-11T00:44:05.548Z,18.50
2018-06-11T00:45:08.360Z,18.50
2018-06-11T00:46:05.342Z,18.60
2018-06-11T00:47:05.346Z,18.50
2018-06-11T00:48:05.225Z,18.50
2018-06-11T00:49:05.031Z,18.50
2018-06-11T00:50:05.428Z,18.50
2018-06-11T00:51:05.444Z,18.50
2018-06-11T00:52:05.381Z,18.50
2018-06-11T00:53:05.504Z,18.50
2018-06-11T00:54:05.600Z,18.50
2018-06-11T00:55:04.780Z,18.50
2018-06-11T00:56:05.287Z,18.50
2018-06-11T00:57:05.072Z,18.50
2018-06-11T00:58:05.297Z,18.50
2018-06-11T00:59:04.884Z,18.50
2018-06-11T01:00:04.733Z,18.50
2018-06-11T01:01:04.934Z,18.50
2018-06-11T01:02:04.943Z,18.50
2018-06-11T01:03:04.970Z,18.50
2018-06-11T01:04:04.979Z,18.50
2018-06-11T01:05:05.096Z,18.40
2018-06-11T01:06:04.999Z,18.40
2018-06-11T01:07:05.748Z,18.40
2018-06-11T01:08:05.261Z,18.40
2018-06-11T01:09:04.768Z,18.40
2018-06-11T01:10:04.731Z,18.40
2018-06-11T01:11:04.753Z,18.30
2018-06-11T01:12:05.002Z,18.30
2018-06-11T01:13:05.019Z,18.30
2018-06-11T01:14:05.621Z,18.30
2018-06-11T01:15:10.252Z,18.30
2018-06-11T01:16:05.103Z,18.30
2018-06-11T01:17:04.848Z,18.30
2018-06-11T01:18:05.523Z,18.30
2018-06-11T01:19:05.498Z,18.40
2018-06-11T01:20:05.109Z,18.30
2018-06-11T01:21:04.654Z,18.30
2018-06-11T01:22:05.038Z,18.30
2018-06-11T01:23:05.259Z,18.30
2018-06-11T01:24:05.112Z,18.30
2018-06-11T01:25:04.917Z,18.30
2018-06-11T01:26:05.231Z,18.30
2018-06-11T01:27:04.721Z,18.30
2018-06-11T01:28:04.751Z,18.30
2018-06-11T01:29:04.874Z,18.30
2018-06-11T01:30:05.400Z,18.30
2018-06-11T01:31:05.047Z,18.30
2018-06-11T01:32:04.902Z,18.30
2018-06-11T01:33:05.618Z,18.30
2018-06-11T01:34:05.509Z,18.30
2018-06-11T01:35:05.515Z,18.20
2018-06-11T01:36:05.607Z,18.30
2018-06-11T01:37:05.412Z,18.20
2018-06-11T01:38:04.654Z,18.20
2018-06-11T01:39:04.862Z,18.20
2018-06-11T01:40:05.095Z,18.20
2018-06-11T01:41:05.253Z,18.30
2018-06-11T01:42:05.516Z,18.30
2018-06-11T01:43:04.699Z,18.30
2018-06-11T01:44:04.812Z,18.30
2018-06-11T01:45:04.846Z,18.30
2018-06-11T01:46:04.706Z,18.30
2018-06-11T01:47:04.878Z,18.30
2018-06-11T01:48:04.692Z,18.30
2018-06-11T01:49:04.854Z,18.30
2018-06-11T01:50:04.663Z,18.30
2018-06-11T01:51:05.287Z,18.30
2018-06-11T01:52:05.416Z,18.30
2018-06-11T01:53:05.680Z,18.40
2018-06-11T01:54:05.758Z,18.40
2018-06-11T01:55:04.622Z,18.40
2018-06-11T01:56:04.782Z,18.40
2018-06-11T01:57:04.887Z,18.40
2018-06-11T01:58:05.131Z,18.40
2018-06-11T01:59:05.264Z,18.40
2018-06-11T02:00:05.255Z,18.40
2018-06-11T02:01:04.781Z,18.40
2018-06-11T02:02:05.708Z,18.40
2018-06-11T02:03:05.163Z,18.40
2018-06-11T02:04:04.892Z,18.40
2018-06-11T02:05:04.961Z,18.40
2018-06-11T02:06:05.040Z,18.40
2018-06-11T02:07:05.500Z,18.40
2018-06-11T02:08:05.490Z,18.40
2018-06-11T02:09:05.370Z,18.40
2018-06-11T02:10:05.198Z,18.40
2018-06-11T02:11:05.403Z,18.40
2018-06-11T02:12:04.926Z,18.50
2018-06-11T02:13:04.590Z,18.40
2018-06-11T02:14:05.051Z,18.50
2018-06-11T02:15:05.237Z,18.50
2018-06-11T02:16:04.831Z,18.50
2018-06-11T02:17:05.592Z,18.50
2018-06-11T02:18:05.276Z,18.50
2018-06-11T02:19:05.369Z,18.50
2018-06-11T02:20:04.948Z,18.50
2018-06-11T02:21:05.324Z,18.50
2018-06-11T02:22:05.099Z,18.50
2018-06-11T02:23:05.309Z,18.50
2018-06-11T02:24:05.319Z,18.50
2018-06-11T02:25:05.267Z,18.50
2018-06-11T02:26:04.789Z,18.50
2018-06-11T02:27:05.207Z,18.50
2018-06-11T02:28:05.478Z,18.50
2018-06-11T02:29:05.654Z,18.50
2018-06-11T02:30:04.766Z,18.50
2018-06-11T02:31:04.787Z,18.50
2018-06-11T02:32:05.157Z,18.50
2018-06-11T02:33:05.342Z,18.50
2018-06-11T02:34:04.950Z,18.50
2018-06-11T02:35:05.380Z,18.50
2018-06-11T02:36:05.373Z,18.50
2018-06-11T02:37:04.966Z,18.50
2018-06-11T02:38:05.120Z,18.50
2018-06-11T02:39:05.193Z,18.50
2018-06-11T02:40:05.203Z,18.50
2018-06-11T02:41:05.430Z,18.50
2018-06-11T02:42:05.382Z,18.50
2018-06-11T02:43:05.663Z,18.50
2018-06-11T02:44:04.832Z,18.50
2018-06-11T02:45:04.836Z,18.50
2018-06-11T02:46:04.726Z,18.50
2018-06-11T02:47:04.931Z,18.50
2018-06-11T02:48:04.958Z,18.50
2018-06-11T02:49:05.620Z,18.50
2018-06-11T02:50:04.808Z,18.50
2018-06-11T02:51:05.033Z,18.50
2018-06-11T02:52:05.613Z,18.50
2018-06-11T02:53:05.202Z,18.50
2018-06-11T02:54:05.487Z,18.50
2018-06-11T02:55:06.579Z,18.50
2018-06-11T02:56:05.623Z,18.50
2018-06-11T02:57:05.398Z,18.50
2018-06-11T02:58:05.185Z,18.50
2018-06-11T02:59:05.077Z,18.50
2018-06-11T03:00:05.037Z,18.50
2018-06-11T03:01:04.974Z,18.60
2018-06-11T03:02:05.008Z,18.60
2018-06-11T03:03:05.219Z,18.60
2018-06-11T03:04:05.195Z,18.60
2018-06-11T03:05:04.733Z,18.60
2018-06-11T03:06:04.926Z,18.60
2018-06-11T03:07:05.020Z,18.60
2018-06-11T03:08:05.349Z,18.60
2018-06-11T03:09:05.443Z,18.60
2018-06-11T03:10:05.110Z,18.60
2018-06-11T03:11:04.893Z,18.70
2018-06-11T03:12:05.660Z,18.60
2018-06-11T03:13:04.837Z,18.70
2018-06-11T03:14:04.897Z,18.70
2018-06-11T03:15:04.780Z,18.70
2018-06-11T03:16:05.110Z,18.70
2018-06-11T03:17:05.128Z,18.70
2018-06-11T03:18:05.276Z,18.70
2018-06-11T03:19:05.086Z,18.70
2018-06-11T03:20:05.401Z,18.80
2018-06-11T03:21:04.753Z,18.80
2018-06-11T03:22:05.073Z,18.80
2018-06-11T03:23:06.044Z,18.80
2018-06-11T03:24:05.402Z,18.80
2018-06-11T03:25:04.830Z,18.80
2018-06-11T03:26:04.876Z,18.80
2018-06-11T03:27:05.565Z,18.80
2018-06-11T03:28:05.594Z,18.80
2018-06-11T03:29:05.040Z,18.90
2018-06-11T03:30:05.161Z,18.90
2018-06-11T03:31:04.932Z,18.90
2018-06-11T03:32:04.973Z,18.90
2018-06-11T03:33:05.485Z,18.90
2018-06-11T03:34:05.504Z,18.90
2018-06-11T03:35:05.078Z,18.90
2018-06-11T03:36:04.822Z,18.90
2018-06-11T03:37:05.068Z,18.90
2018-06-11T03:38:04.822Z,18.90
2018-06-11T03:39:05.040Z,18.90
2018-06-11T03:40:05.022Z,18.90
2018-06-11T03:41:04.882Z,18.90
2018-06-11T03:42:04.744Z,18.90
2018-06-11T03:43:05.722Z,18.90
2018-06-11T03:44:04.771Z,18.90
2018-06-11T03:45:04.886Z,19.00
2018-06-11T03:46:04.830Z,19.00
2018-06-11T03:47:04.720Z,19.00
2018-06-11T03:48:05.250Z,19.00
2018-06-11T03:49:05.046Z,19.00
2018-06-11T03:50:05.063Z,19.00
2018-06-11T03:51:05.105Z,19.00
2018-06-11T03:52:05.046Z,19.00
2018-06-11T03:53:05.465Z,19.00
2018-06-11T03:54:05.019Z,19.10
2018-06-11T03:55:05.305Z,19.00
2018-06-11T03:56:05.330Z,19.10
2018-06-11T03:57:05.726Z,19.10
2018-06-11T03:58:05.366Z,19.10
2018-06-11T03:59:04.932Z,19.10
2018-06-11T04:00:05.715Z,19.10
2018-06-11T04:01:04.647Z,19.10
2018-06-11T04:02:04.860Z,19.10
2018-06-11T04:03:04.909Z,19.10
2018-06-11T04:04:05.136Z,19.10
2018-06-11T04:05:05.320Z,19.10
2018-06-11T04:06:04.819Z,19.10
2018-06-11T04:07:04.763Z,19.20
2018-06-11T04:08:05.286Z,19.20
2018-06-11T04:09:05.278Z,19.20
2018-06-11T04:10:05.539Z,19.20
2018-06-11T04:11:05.529Z,19.20
2018-06-11T04:12:04.964Z,19.20
2018-06-11T04:13:05.184Z,19.20
2018-06-11T04:14:04.868Z,19.20
2018-06-11T04:15:05.005Z,19.20
2018-06-11T04:16:05.260Z,19.20
2018-06-11T04:17:05.393Z,19.20
2018-06-11T04:18:04.751Z,19.20
2018-06-11T04:19:04.961Z,19.20
2018-06-11T04:20:04.853Z,19.20
2018-06-11T04:21:05.688Z,19.20
2018-06-11T04:22:04.857Z,19.20
2018-06-11T04:23:05.009Z,19.20
2018-06-11T04:24:04.915Z,19.20
2018-06-11T04:25:05.731Z,19.20
2018-06-11T04:26:05.187Z,19.20
2018-06-11T04:27:05.202Z,19.20
2018-06-11T04:28:05.436Z,19.20
2018-06-11T04:29:05.424Z,19.20
2018-06-11T04:30:05.146Z,19.20
2018-06-11T04:31:04.945Z,19.20
2018-06-11T04:32:04.804Z,19.20
2018-06-11T04:33:04.994Z,19.20
2018-06-11T04:34:05.002Z,19.20
2018-06-11T04:35:05.105Z,19.20
2018-06-11T04:36:05.658Z,19.20
2018-06-11T04:37:05.022Z,19.20
2018-06-11T04:38:05.070Z,19.20
2018-06-11T04:39:05.590Z,19.20
2018-06-11T04:40:05.221Z,19.20
2018-06-11T04:41:05.274Z,19.30
2018-06-11T04:42:05.210Z,19.20
2018-06-11T04:43:05.193Z,19.20
2018-06-11T04:44:05.378Z,19.30
2018-06-11T04:45:05.055Z,19.20
2018-06-11T04:46:05.171Z,19.30
2018-06-11T04:47:05.163Z,19.20
2018-06-11T04:48:05.168Z,19.30
2018-06-11T04:49:04.968Z,19.20
2018-06-11T04:50:04.863Z,19.30
2018-06-11T04:51:05.552Z,19.30
2018-06-11T04:52:04.969Z,19.20
2018-06-11T04:53:05.718Z,19.20
2018-06-11T04:54:04.895Z,19.20
2018-06-11T04:55:04.754Z,19.20
2018-06-11T04:56:05.033Z,19.20
2018-06-11T04:57:05.021Z,19.20
2018-06-11T04:58:05.150Z,19.20
2018-06-11T04:59:05.370Z,19.20
2018-06-11T05:00:05.573Z,19.20
2018-06-11T05:01:04.974Z,19.20
2018-06-11T05:02:05.023Z,19.20
2018-06-11T05:03:04.950Z,19.20
2018-06-11T05:04:04.784Z,19.20
2018-06-11T05:05:05.052Z,19.20
2018-06-11T05:06:05.126Z,19.20
2018-06-11T05:07:05.249Z,19.20
2018-06-11T05:08:04.900Z,19.20
2018-06-11T05:09:05.253Z,19.20
2018-06-11T05:10:04.768Z,19.20
2018-06-11T05:11:05.570Z,19.20
2018-06-11T05:12:04.793Z,19.20
2018-06-11T05:13:05.016Z,19.20
2018-06-11T05:14:04.741Z,19.20
2018-06-11T05:15:05.346Z,19.20
2018-06-11T05:16:05.039Z,19.20
2018-06-11T05:17:05.616Z,19.20
2018-06-11T05:18:05.566Z,19.20
2018-06-11T05:19:05.125Z,19.20
2018-06-11T05:20:05.230Z,19.10
2018-06-11T05:21:05.206Z,19.10
2018-06-11T05:22:04.779Z,19.10
2018-06-11T05:23:04.831Z,19.10
2018-06-11T05:24:05.611Z,19.10
2018-06-11T05:25:05.485Z,19.10
2018-06-11T05:26:04.720Z,19.10
2018-06-11T05:27:04.805Z,19.10
2018-06-11T05:28:05.708Z,19.10
2018-06-11T05:29:05.183Z,19.10
2018-06-11T05:30:05.370Z,19.10
2018-06-11T05:31:05.515Z,19.10
2018-06-11T05:32:05.398Z,19.00
2018-06-11T05:33:04.728Z,19.00
2018-06-11T05:34:05.101Z,19.00
2018-06-11T05:35:05.010Z,19.00
2018-06-11T05:36:04.683Z,19.00
2018-06-11T05:37:05.189Z,19.00
2018-06-11T05:38:05.265Z,19.00
2018-06-11T05:39:04.829Z,19.00
2018-06-11T05:40:05.542Z,19.00
2018-06-11T05:41:05.437Z,19.00
2018-06-11T05:42:05.400Z,19.00
2018-06-11T05:43:05.503Z,19.00
2018-06-11T05:44:05.449Z,19.00
2018-06-11T05:45:04.807Z,19.00
2018-06-11T05:46:05.178Z,19.00
2018-06-11T05:47:04.742Z,18.90
2018-06-11T05:48:05.629Z,18.90
2018-06-11T05:49:05.710Z,19.00
2018-06-11T05:50:05.540Z,18.90
2018-06-11T05:51:09.741Z,18.90
2018-06-11T05:52:05.058Z,19.00
2018-06-11T05:53:04.745Z,18.90
2018-06-11T05:54:04.911Z,18.90
2018-06-11T05:55:04.791Z,18.90
2018-06-11T05:56:05.681Z,18.90
2018-06-11T05:57:04.839Z,18.90
2018-06-11T05:58:04.686Z,18.90
2018-06-11T05:59:05.218Z,18.90
2018-06-11T06:00:05.584Z,18.90
2018-06-11T06:01:05.138Z,18.90
2018-06-11T06:02:05.389Z,18.90
2018-06-11T06:03:05.428Z,18.90
2018-06-11T06:04:05.369Z,18.90
2018-06-11T06:05:05.046Z,18.90
2018-06-11T06:06:05.147Z,18.90
2018-06-11T06:07:05.346Z,18.90
2018-06-11T06:08:05.123Z,18.90
2018-06-11T06:09:05.212Z,18.90
2018-06-11T06:10:05.779Z,18.90
2018-06-11T06:11:04.724Z,18.90
2018-06-11T06:12:04.959Z,18.90
2018-06-11T06:13:05.853Z,18.90
2018-06-11T06:14:05.312Z,18.90
2018-06-11T06:15:05.642Z,18.90
2018-06-11T06:16:04.750Z,18.90
2018-06-11T06:17:05.030Z,18.90
2018-06-11T06:18:05.606Z,18.90
2018-06-11T06:19:05.576Z,18.90
2018-06-11T06:20:04.884Z,18.90
2018-06-11T06:21:05.574Z,18.90
2018-06-11T06:22:05.443Z,18.90
2018-06-11T06:23:05.486Z,18.90
2018-06-11T06:24:04.799Z,18.90
2018-06-11T06:25:05.284Z,18.90
2018-06-11T06:26:05.249Z,18.90
2018-06-11T06:27:05.033Z,18.90
2018-06-11T06:28:04.881Z,18.90
2018-06-11T06:29:05.625Z,18.90
2018-06-11T06:30:05.606Z,18.90
2018-06-11T06:31:05.591Z,18.90
2018-06-11T06:32:10.197Z,18.80
2018-06-11T06:33:05.188Z,18.90
2018-06-11T06:34:05.008Z,18.80
2018-06-11T06:35:04.988Z,18.80
2018-06-11T06:36:05.560Z,18.80
2018-06-11T06:37:05.242Z,18.80
2018-06-11T06:38:05.563Z,18.80
2018-06-11T06:39:05.307Z,18.80
2018-06-11T06:40:05.376Z,18.80
2018-06-11T06:41:04.831Z,18.80
2018-06-11T06:42:05.260Z,18.80
2018-06-11T06:43:05.457Z,18.80
2018-06-11T06:44:05.103Z,18.80
2018-06-11T06:45:05.229Z,18.80
2018-06-11T06:46:05.020Z,18.80
2018-06-11T06:47:05.059Z,18.80
2018-06-11T06:48:04.868Z,18.80
2018-06-11T06:49:04.946Z,18.80
2018-06-11T06:50:05.441Z,18.80
2018-06-11T06:51:05.378Z,18.80
2018-06-11T06:52:05.233Z,18.80
2018-06-11T06:53:04.674Z,18.90
2018-06-11T06:54:04.805Z,18.90
2018-06-11T06:55:05.232Z,18.90
2018-06-11T06:56:05.159Z,18.90
2018-06-11T06:57:04.706Z,18.90
2018-06-11T06:58:04.942Z,18.90
2018-06-11T06:59:05.259Z,19.00
2018-06-11T07:00:05.384Z,19.00
2018-06-11T07:01:05.423Z,19.00
2018-06-11T07:02:05.018Z,19.10
2018-06-11T07:03:04.873Z,19.10
2018-06-11T07:04:04.769Z,19.10
2018-06-11T07:05:05.638Z,19.10
2018-06-11T07:06:04.895Z,19.10
2018-06-11T07:07:05.084Z,19.10
2018-06-11T07:08:05.777Z,19.10
2018-06-11T07:09:05.565Z,19.10
2018-06-11T07:10:04.844Z,19.10
2018-06-11T07:11:04.839Z,19.10
2018-06-11T07:12:04.785Z,19.00
2018-06-11T07:13:05.148Z,19.00
2018-06-11T07:14:05.104Z,19.00
2018-06-11T07:15:05.464Z,19.00
2018-06-11T07:16:04.664Z,19.00
2018-06-11T07:17:04.769Z,19.00
2018-06-11T07:18:04.724Z,19.00
2018-06-11T07:19:04.830Z,19.00
2018-06-11T07:20:05.486Z,18.90
2018-06-11T07:21:05.625Z,18.90
2018-06-11T07:22:05.004Z,19.00
2018-06-11T07:23:05.430Z,18.90
2018-06-11T07:24:05.525Z,18.90
2018-06-11T07:25:05.179Z,18.90
2018-06-11T07:26:04.836Z,18.90
2018-06-11T07:27:05.153Z,18.90
2018-06-11T07:28:04.982Z,18.90
2018-06-11T07:29:05.247Z,18.90
2018-06-11T07:30:05.160Z,18.90
2018-06-11T07:31:05.036Z,18.90
2018-06-11T07:32:05.055Z,18.90
2018-06-11T07:33:04.749Z,18.80
2018-06-11T07:34:04.805Z,18.80
2018-06-11T07:35:05.682Z,18.80
2018-06-11T07:36:04.987Z,18.80
2018-06-11T07:37:05.529Z,18.80
2018-06-11T07:38:04.891Z,18.80
2018-06-11T07:39:05.330Z,18.80
2018-06-11T07:40:05.628Z,18.70
2018-06-11T07:41:05.483Z,18.70
2018-06-11T07:42:05.103Z,18.70
2018-06-11T07:43:05.239Z,18.70
2018-06-11T07:44:05.501Z,18.70
2018-06-11T07:45:05.423Z,18.70
2018-06-11T07:46:04.944Z,18.70
2018-06-11T07:47:05.108Z,18.70
2018-06-11T07:48:04.949Z,18.70
2018-06-11T07:49:05.474Z,18.70
2018-06-11T07:50:04.792Z,18.70
2018-06-11T07:51:05.360Z,18.70
2018-06-11T07:52:05.621Z,18.70
2018-06-11T07:53:05.305Z,18.60
2018-06-11T07:54:05.323Z,18.60
2018-06-11T07:55:05.600Z,18.60
2018-06-11T07:56:06.039Z,18.60
2018-06-11T07:57:05.310Z,18.60
2018-06-11T07:58:05.423Z,18.70
2018-06-11T07:59:05.074Z,18.60
2018-06-11T08:00:04.612Z,18.60
2018-06-11T08:01:04.892Z,18.60
2018-06-11T08:02:05.139Z,18.60
2018-06-11T08:03:05.462Z,18.60
2018-06-11T08:04:04.884Z,18.60
2018-06-11T08:05:04.824Z,18.60
2018-06-11T08:06:05.095Z,18.60
2018-06-11T08:07:04.695Z,18.60
2018-06-11T08:08:05.387Z,18.60
2018-06-11T08:09:05.398Z,18.60
2018-06-11T08:10:06.093Z,18.70
2018-06-11T08:11:05.146Z,18.70
2018-06-11T08:12:05.435Z,18.70
2018-06-11T08:13:05.051Z,18.70
2018-06-11T08:14:05.318Z,18.60
2018-06-11T08:15:04.745Z,18.60
2018-06-11T08:16:04.793Z,18.60
2018-06-11T08:17:04.864Z,18.60
2018-06-11T08:18:04.742Z,18.60
2018-06-11T08:19:04.796Z,18.60
2018-06-11T08:20:05.593Z,18.60
2018-06-11T08:21:05.624Z,18.60
2018-06-11T08:22:05.348Z,18.60
2018-06-11T08:23:05.058Z,18.60
2018-06-11T08:24:05.487Z,18.60
2018-06-11T08:25:05.742Z,18.60
2018-06-11T08:26:05.195Z,18.60
2018-06-11T08:27:05.389Z,18.60
2018-06-11T08:28:04.770Z,18.60
2018-06-11T08:29:04.775Z,18.60
2018-06-11T08:30:04.968Z,18.60
2018-06-11T08:31:05.415Z,18.60
2018-06-11T08:32:05.473Z,18.60
2018-06-11T08:33:05.201Z,18.60
2018-06-11T08:34:05.123Z,18.60
2018-06-11T08:35:06.302Z,18.60
2018-06-11T08:36:05.010Z,18.60
2018-06-11T08:37:05.270Z,18.60
2018-06-11T08:38:05.316Z,18.60
2018-06-11T08:39:04.947Z,18.60
2018-06-11T08:40:05.330Z,18.60
2018-06-11T08:41:05.394Z,18.60
2018-06-11T08:42:05.028Z,18.60
2018-06-11T08:43:04.825Z,18.60
2018-06-11T08:44:04.976Z,18.60
2018-06-11T08:45:05.443Z,18.60
2018-06-11T08:46:05.518Z,18.60
2018-06-11T08:47:05.229Z,18.50
2018-06-11T08:48:05.495Z,18.50
2018-06-11T08:49:05.212Z,18.50
2018-06-11T08:50:05.419Z,18.50
2018-06-11T08:51:05.270Z,18.50
2018-06-11T08:52:05.233Z,18.50
2018-06-11T08:53:05.236Z,18.50
2018-06-11T08:54:04.852Z,18.50
2018-06-11T08:55:04.870Z,18.50
2018-06-11T08:56:05.178Z,18.50
2018-06-11T08:57:06.058Z,18.50
2018-06-11T08:58:05.358Z,18.50
2018-06-11T08:59:05.464Z,18.50
2018-06-11T09:00:05.472Z,18.60
2018-06-11T09:01:05.369Z,18.60
2018-06-11T09:02:05.224Z,18.60
2018-06-11T09:03:04.932Z,18.60
2018-06-11T09:04:04.786Z,18.60
2018-06-11T09:05:05.278Z,18.60
2018-06-11T09:06:05.457Z,18.60
2018-06-11T09:07:05.315Z,18.60
2018-06-11T09:08:04.678Z,18.60
2018-06-11T09:09:05.632Z,18.60
2018-06-11T09:10:05.728Z,18.60
2018-06-11T09:11:10.461Z,18.60
2018-06-11T09:12:05.439Z,18.60
2018-06-11T09:13:05.607Z,18.60
2018-06-11T09:14:05.398Z,18.60
2018-06-11T09:15:05.527Z,18.70
2018-06-11T09:16:05.228Z,18.60
2018-06-11T09:17:05.338Z,18.70
2018-06-11T09:18:05.502Z,18.70
2018-06-11T09:19:05.681Z,18.70
2018-06-11T09:20:05.451Z,18.70
2018-06-11T09:21:05.591Z,18.70
2018-06-11T09:22:05.449Z,18.70
2018-06-11T09:23:04.966Z,18.70
2018-06-11T09:24:05.527Z,18.70
2018-06-11T09:25:05.420Z,18.70
2018-06-11T09:26:05.275Z,18.70
2018-06-11T09:27:05.277Z,18.70
2018-06-11T09:28:05.318Z,18.70
2018-06-11T09:29:05.621Z,18.70
2018-06-11T09:30:05.471Z,18.80
2018-06-11T09:31:05.007Z,18.80
2018-06-11T09:32:05.134Z,18.80
2018-06-11T09:33:05.023Z,18.80
2018-06-11T09:34:05.616Z,18.80
2018-06-11T09:35:05.627Z,18.80
2018-06-11T09:36:05.013Z,18.80
2018-06-11T09:37:05.219Z,18.80
2018-06-11T09:38:05.137Z,18.80
2018-06-11T09:39:04.800Z,18.80
2018-06-11T09:40:05.302Z,18.80
2018-06-11T09:41:05.266Z,18.80
2018-06-11T09:42:05.151Z,18.80
2018-06-11T09:43:05.542Z,18.80
2018-06-11T09:44:04.894Z,18.80
2018-06-11T09:45:04.863Z,18.80
2018-06-11T09:46:05.619Z,18.80
2018-06-11T09:47:05.334Z,18.80
2018-06-11T09:48:05.441Z,18.80
2018-06-11T09:49:05.302Z,18.80
2018-06-11T09:50:05.548Z,18.80
2018-06-11T09:51:05.622Z,18.80
2018-06-11T09:52:05.531Z,18.80
2018-06-11T09:53:05.189Z,18.80
2018-06-11T09:54:05.188Z,18.80
2018-06-11T09:55:05.033Z,18.80
2018-06-11T09:56:05.250Z,18.80
2018-06-11T09:57:05.110Z,18.80
2018-06-11T09:58:05.244Z,18.80
2018-06-11T09:59:05.627Z,18.90
2018-06-11T10:00:05.536Z,18.90
2018-06-11T10:01:04.789Z,18.90
2018-06-11T10:02:05.691Z,18.90
2018-06-11T10:03:04.699Z,18.90
2018-06-11T10:04:05.594Z,18.90
2018-06-11T10:05:05.032Z,18.90
2018-06-11T10:06:04.744Z,18.90
2018-06-11T10:07:06.085Z,18.90
2018-06-11T10:08:04.845Z,18.90
2018-06-11T10:09:05.309Z,18.90
2018-06-11T10:10:05.309Z,18.90
2018-06-11T10:11:05.366Z,18.90
2018-06-11T10:12:05.359Z,18.90
2018-06-11T10:13:05.560Z,18.90
2018-06-11T10:14:04.909Z,18.90
2018-06-11T10:15:05.068Z,19.00
2018-06-11T10:16:05.826Z,19.00
2018-06-11T10:17:05.015Z,19.00
2018-06-11T10:18:05.599Z,19.00
2018-06-11T10:19:05.377Z,19.00
2018-06-11T10:20:05.214Z,19.00
2018-06-11T10:21:05.153Z,19.00
2018-06-11T10:22:04.830Z,19.00
2018-06-11T10:23:05.432Z,19.00
2018-06-11T10:24:05.109Z,19.00
2018-06-11T10:25:05.057Z,19.00
2018-06-11T10:26:04.985Z,19.00
2018-06-11T10:27:05.695Z,19.00
2018-06-11T10:28:05.111Z,19.00
2018-06-11T10:29:05.490Z,19.00
2018-06-11T10:30:04.815Z,19.00
2018-06-11T10:31:04.855Z,19.00
2018-06-11T10:32:05.037Z,19.00
2018-06-11T10:33:05.605Z,19.10
2018-06-11T10:34:05.508Z,19.10
2018-06-11T10:35:05.404Z,19.00
2018-06-11T10:36:04.793Z,19.10
2018-06-11T10:37:05.645Z,19.10
2018-06-11T10:38:05.422Z,19.10
2018-06-11T10:39:05.698Z,19.10
2018-06-11T10:40:04.814Z,19.10
2018-06-11T10:41:05.387Z,19.10
2018-06-11T10:42:05.011Z,19.20
2018-06-11T10:43:05.261Z,19.20
2018-06-11T10:44:05.239Z,19.20
2018-06-11T10:45:04.977Z,19.20
2018-06-11T10:46:05.192Z,19.20
2018-06-11T10:47:04.838Z,19.20
2018-06-11T10:48:05.349Z,19.20
2018-06-11T10:49:05.275Z,19.20
2018-06-11T10:50:05.371Z,19.20
2018-06-11T10:51:04.777Z,19.20
2018-06-11T10:52:05.612Z,19.20
2018-06-11T10:53:05.653Z,19.20
2018-06-11T10:54:05.553Z,19.20
2018-06-11T10:55:05.602Z,19.20
2018-06-11T10:56:05.278Z,19.20
2018-06-11T10:57:05.100Z,19.20
2018-06-11T10:58:05.135Z,19.20
2018-06-11T10:59:04.761Z,19.20
2018-06-11T11:00:04.640Z,19.20
2018-06-11T11:01:04.749Z,19.20
2018-06-11T11:02:04.678Z,19.30
2018-06-11T11:03:05.146Z,19.30
2018-06-11T11:04:04.847Z,19.30
2018-06-11T11:05:05.493Z,19.30
2018-06-11T11:06:05.713Z,19.30
2018-06-11T11:07:05.584Z,19.30
2018-06-11T11:08:05.058Z,19.30
2018-06-11T11:09:05.227Z,19.30
2018-06-11T11:10:06.532Z,19.30
2018-06-11T11:11:05.145Z,19.30
2018-06-11T11:12:10.084Z,19.30
2018-06-11T11:13:05.048Z,19.30
2018-06-11T11:14:05.229Z,19.40
2018-06-11T11:15:04.748Z,19.40
2018-06-11T11:16:05.708Z,19.40
2018-06-11T11:17:04.707Z,19.40
2018-06-11T11:18:05.398Z,19.40
2018-06-11T11:19:05.309Z,19.40
2018-06-11T11:20:05.363Z,19.40
2018-06-11T11:21:05.405Z,19.40
2018-06-11T11:22:05.369Z,19.50
2018-06-11T11:23:05.338Z,19.50
2018-06-11T11:24:05.523Z,19.50
2018-06-11T11:25:05.498Z,19.50
2018-06-11T11:26:04.657Z,19.50
2018-06-11T11:27:05.260Z,19.60
2018-06-11T11:28:05.398Z,19.60
2018-06-11T11:29:05.313Z,19.70
2018-06-11T11:30:05.243Z,19.70
2018-06-11T11:31:05.215Z,19.70
2018-06-11T11:32:05.303Z,19.80
2018-06-11T11:33:05.041Z,19.80
2018-06-11T11:34:04.814Z,19.80
2018-06-11T11:35:04.979Z,19.80
2018-06-11T11:36:04.776Z,19.80
2018-06-11T11:37:05.060Z,19.80
2018-06-11T11:38:04.993Z,19.80
2018-06-11T11:39:05.205Z,19.90
2018-06-11T11:40:04.868Z,19.90
2018-06-11T11:41:04.841Z,19.90
2018-06-11T11:42:05.381Z,19.90
2018-06-11T11:43:05.315Z,19.90
2018-06-11T11:44:05.095Z,19.90
2018-06-11T11:45:05.076Z,20.00
2018-06-11T11:46:05.451Z,20.00
2018-06-11T11:47:05.396Z,20.00
2018-06-11T11:48:05.457Z,20.00
2018-06-11T11:49:05.385Z,20.00
2018-06-11T11:50:04.971Z,20.00
2018-06-11T11:51:04.828Z,20.10
2018-06-11T11:52:05.619Z,20.10
2018-06-11T11:53:04.670Z,20.10
2018-06-11T11:54:04.852Z,20.10
2018-06-11T11:55:04.795Z,20.20
2018-06-11T11:56:04.835Z,20.20
2018-06-11T11:57:05.549Z,20.30
2018-06-11T11:58:05.429Z,20.30
2018-06-11T11:59:05.173Z,20.30
2018-06-11T12:00:05.606Z,20.40
2018-06-11T12:01:04.685Z,20.40
2018-06-11T12:02:04.700Z,20.50
2018-06-11T12:03:04.985Z,20.60
2018-06-11T12:04:05.128Z,20.70
2018-06-11T12:05:05.772Z,20.70
2018-06-11T12:06:04.795Z,20.80
2018-06-11T12:07:05.551Z,20.80
2018-06-11T12:08:05.259Z,20.80
2018-06-11T12:09:04.980Z,20.80
2018-06-11T12:10:04.938Z,20.80
2018-06-11T12:11:05.230Z,20.80
2018-06-11T12:12:05.391Z,20.80
2018-06-11T12:13:04.818Z,20.80
2018-06-11T12:14:04.713Z,20.80
2018-06-11T12:15:04.757Z,20.80
2018-06-11T12:16:05.038Z,20.90
2018-06-11T12:17:05.224Z,20.80
2018-06-11T12:18:04.881Z,20.80
2018-06-11T12:19:04.773Z,20.90
2018-06-11T12:20:05.361Z,20.90
2018-06-11T12:21:05.453Z,20.90
2018-06-11T12:22:05.030Z,20.90
2018-06-11T12:23:05.291Z,20.90
2018-06-11T12:24:04.767Z,20.90
2018-06-11T12:25:04.840Z,20.90
2018-06-11T12:26:05.203Z,20.90
2018-06-11T12:27:05.155Z,20.90
2018-06-11T12:28:04.777Z,20.90
2018-06-11T12:29:04.751Z,20.90
2018-06-11T12:30:04.921Z,20.90
2018-06-11T12:31:05.069Z,20.80
2018-06-11T12:32:05.645Z,20.80
2018-06-11T12:33:05.284Z,20.80
2018-06-11T12:34:04.758Z,20.80
2018-06-11T12:35:04.738Z,20.80
2018-06-11T12:36:06.188Z,20.80
2018-06-11T12:37:05.263Z,20.70
2018-06-11T12:38:04.859Z,20.70
2018-06-11T12:39:05.336Z,20.70
2018-06-11T12:40:04.983Z,20.70
2018-06-11T12:41:05.553Z,20.70
2018-06-11T12:42:04.783Z,20.70
2018-06-11T12:43:05.632Z,20.70
2018-06-11T12:44:04.752Z,20.70
2018-06-11T12:45:05.338Z,20.70
2018-06-11T12:46:04.959Z,20.70
2018-06-11T12:47:05.714Z,20.70
2018-06-11T12:48:05.355Z,20.70
2018-06-11T12:49:05.429Z,20.70
2018-06-11T12:50:04.790Z,20.70
2018-06-11T12:51:05.547Z,20.70
2018-06-11T12:52:05.095Z,20.70